sensor_id;sensor_type;location;lat;lon;timestamp;temperature;humidity
32769;DHT22;23049;54.304;8.826;2023-06-10T00:02:13;13.60;99.90
32769;DHT22;23049;54.304;8.826;2023-06-10T00:04:38;13.50;99.90
32769;DHT22;23049;54.304;8.826;2023-06-10T00:07:04;13.50;99.90
32769;DHT22;23049;54.304;8.826;2023-06-10T00:09:37;13.40;99.90
32769;DHT22;23049;54.304;8.826;2023-06-10T00:12:03;13.30;99.90
32769;DHT22;23049;54.304;8.826;2023-06-10T00:14:30;13.20;99.90
32769;DHT22;23049;54.304;8.826;2023-06-10T00:16:55;13.20;99.90
32769;DHT22;23049;54.304;8.826;2023-06-10T00:19:23;13.20;99.90
32769;DHT22;23049;54.304;8.826;2023-06-10T00:21:51;13.20;99.90
32769;DHT22;23049;54.304;8.826;2023-06-10T00:24:17;13.20;99.90
32769;DHT22;23049;54.304;8.826;2023-06-10T00:26:43;13.10;99.90
32769;DHT22;23049;54.304;8.826;2023-06-10T00:29:08;13.20;99.90
32769;DHT22;23049;54.304;8.826;2023-06-10T00:31:34;13.20;99.90
32769;DHT22;23049;54.304;8.826;2023-06-10T00:34:01;13.20;99.90
32769;DHT22;23049;54.304;8.826;2023-06-10T00:36:27;13.20;99.90
32769;DHT22;23049;54.304;8.826;2023-06-10T00:38:53;13.20;99.90
32769;DHT22;23049;54.304;8.826;2023-06-10T00:41:19;13.30;99.90
32769;DHT22;23049;54.304;8.826;2023-06-10T00:43:44;13.20;99.90
32769;DHT22;23049;54.304;8.826;2023-06-10T00:46:11;13.20;99.90
32769;DHT22;23049;54.304;8.826;2023-06-10T00:48:37;13.20;99.90
32769;DHT22;23049;54.304;8.826;2023-06-10T00:51:03;13.20;99.90
32769;DHT22;23049;54.304;8.826;2023-06-10T00:53:30;13.20;99.90
32769;DHT22;23049;54.304;8.826;2023-06-10T00:55:55;13.20;99.90
32769;DHT22;23049;54.304;8.826;2023-06-10T00:58:22;13.20;99.90
32769;DHT22;23049;54.304;8.826;2023-06-10T01:00:48;13.20;99.90
32769;DHT22;23049;54.304;8.826;2023-06-10T01:03:15;13.20;99.90
32769;DHT22;23049;54.304;8.826;2023-06-10T01:05:42;13.20;99.90
32769;DHT22;23049;54.304;8.826;2023-06-10T01:08:18;13.20;99.90
32769;DHT22;23049;54.304;8.826;2023-06-10T01:10:56;13.10;99.90
32769;DHT22;23049;54.304;8.826;2023-06-10T01:13:23;13.10;99.90
32769;DHT22;23049;54.304;8.826;2023-06-10T01:15:54;13.10;99.90
32769;DHT22;23049;54.304;8.826;2023-06-10T01:18:20;13.00;99.90
32769;DHT22;23049;54.304;8.826;2023-06-10T01:20:47;13.00;99.90
32769;DHT22;23049;54.304;8.826;2023-06-10T01:23:14;13.00;99.90
32769;DHT22;23049;54.304;8.826;2023-06-10T01:25:40;13.00;99.90
32769;DHT22;23049;54.304;8.826;2023-06-10T01:33:12;13.00;99.90
32769;DHT22;23049;54.304;8.826;2023-06-10T01:35:40;12.90;99.90
32769;DHT22;23049;54.304;8.826;2023-06-10T01:38:06;12.90;99.90
32769;DHT22;23049;54.304;8.826;2023-06-10T01:40:32;12.90;99.90
32769;DHT22;23049;54.304;8.826;2023-06-10T01:42:57;12.80;99.90
32769;DHT22;23049;54.304;8.826;2023-06-10T01:45:23;12.80;99.90
32769;DHT22;23049;54.304;8.826;2023-06-10T01:47:49;12.80;99.90
32769;DHT22;23049;54.304;8.826;2023-06-10T01:50:14;12.70;99.90
32769;DHT22;23049;54.304;8.826;2023-06-10T01:52:41;12.60;99.90
32769;DHT22;23049;54.304;8.826;2023-06-10T01:55:07;12.50;99.90
32769;DHT22;23049;54.304;8.826;2023-06-10T01:57:32;12.50;99.90
32769;DHT22;23049;54.304;8.826;2023-06-10T01:59:58;12.40;99.90
32769;DHT22;23049;54.304;8.826;2023-06-10T02:02:23;12.40;99.90
32769;DHT22;23049;54.304;8.826;2023-06-10T02:04:50;12.40;99.90
32769;DHT22;23049;54.304;8.826;2023-06-10T02:07:15;12.40;99.90
32769;DHT22;23049;54.304;8.826;2023-06-10T02:09:41;12.30;99.90
32769;DHT22;23049;54.304;8.826;2023-06-10T02:12:07;12.30;99.90
32769;DHT22;23049;54.304;8.826;2023-06-10T02:14:32;12.30;99.90
32769;DHT22;23049;54.304;8.826;2023-06-10T02:16:58;12.30;99.90
32769;DHT22;23049;54.304;8.826;2023-06-10T02:19:24;12.20;99.90
32769;DHT22;23049;54.304;8.826;2023-06-10T02:21:50;12.10;99.90
32769;DHT22;23049;54.304;8.826;2023-06-10T02:24:16;12.10;99.90
32769;DHT22;23049;54.304;8.826;2023-06-10T02:26:42;12.10;99.90
32769;DHT22;23049;54.304;8.826;2023-06-10T02:29:07;12.00;99.90
32769;DHT22;23049;54.304;8.826;2023-06-10T02:31:33;12.00;99.90
32769;DHT22;23049;54.304;8.826;2023-06-10T02:34:01;12.00;99.90
32769;DHT22;23049;54.304;8.826;2023-06-10T02:36:26;12.00;99.90
32769;DHT22;23049;54.304;8.826;2023-06-10T02:38:53;12.00;99.90
32769;DHT22;23049;54.304;8.826;2023-06-10T02:41:18;12.00;99.90
32769;DHT22;23049;54.304;8.826;2023-06-10T02:43:44;12.00;99.90
32769;DHT22;23049;54.304;8.826;2023-06-10T02:46:09;12.10;99.90
32769;DHT22;23049;54.304;8.826;2023-06-10T02:48:41;12.10;99.90
32769;DHT22;23049;54.304;8.826;2023-06-10T02:51:08;12.20;99.90
32769;DHT22;23049;54.304;8.826;2023-06-10T02:53:34;12.20;99.90
32769;DHT22;23049;54.304;8.826;2023-06-10T02:55:59;12.10;99.90
32769;DHT22;23049;54.304;8.826;2023-06-10T02:58:25;12.20;99.90
32769;DHT22;23049;54.304;8.826;2023-06-10T03:00:51;12.20;99.90
32769;DHT22;23049;54.304;8.826;2023-06-10T03:03:17;12.10;99.90
32769;DHT22;23049;54.304;8.826;2023-06-10T03:05:42;12.10;99.90
32769;DHT22;23049;54.304;8.826;2023-06-10T03:08:08;12.10;99.90
32769;DHT22;23049;54.304;8.826;2023-06-10T03:10:33;12.10;99.90
32769;DHT22;23049;54.304;8.826;2023-06-10T03:12:58;12.10;99.90
32769;DHT22;23049;54.304;8.826;2023-06-10T03:15:24;12.20;99.90
32769;DHT22;23049;54.304;8.826;2023-06-10T03:17:50;12.20;99.90
32769;DHT22;23049;54.304;8.826;2023-06-10T03:20:15;12.20;99.90
32769;DHT22;23049;54.304;8.826;2023-06-10T03:22:42;12.30;99.90
32769;DHT22;23049;54.304;8.826;2023-06-10T03:25:08;12.40;99.90
32769;DHT22;23049;54.304;8.826;2023-06-10T03:27:42;12.30;99.90
32769;DHT22;23049;54.304;8.826;2023-06-10T03:30:07;12.30;99.90
32769;DHT22;23049;54.304;8.826;2023-06-10T03:32:34;12.30;99.90
32769;DHT22;23049;54.304;8.826;2023-06-10T03:35:00;12.30;99.90
32769;DHT22;23049;54.304;8.826;2023-06-10T03:37:26;12.30;99.90
32769;DHT22;23049;54.304;8.826;2023-06-10T03:39:51;12.40;99.90
32769;DHT22;23049;54.304;8.826;2023-06-10T03:42:17;12.50;99.90
32769;DHT22;23049;54.304;8.826;2023-06-10T03:44:43;12.50;99.90
32769;DHT22;23049;54.304;8.826;2023-06-10T03:47:08;12.50;99.90
32769;DHT22;23049;54.304;8.826;2023-06-10T03:49:34;12.50;99.90
32769;DHT22;23049;54.304;8.826;2023-06-10T03:52:01;12.50;99.90
32769;DHT22;23049;54.304;8.826;2023-06-10T03:54:27;12.60;99.90
32769;DHT22;23049;54.304;8.826;2023-06-10T03:56:52;12.60;99.90
32769;DHT22;23049;54.304;8.826;2023-06-10T03:59:18;12.60;99.90
32769;DHT22;23049;54.304;8.826;2023-06-10T04:01:43;12.70;99.90
32769;DHT22;23049;54.304;8.826;2023-06-10T04:04:09;12.70;99.90
32769;DHT22;23049;54.304;8.826;2023-06-10T04:06:36;12.80;99.90
32769;DHT22;23049;54.304;8.826;2023-06-10T04:09:02;12.80;99.90
32769;DHT22;23049;54.304;8.826;2023-06-10T04:11:28;12.90;99.90
32769;DHT22;23049;54.304;8.826;2023-06-10T04:13:53;12.90;99.90
32769;DHT22;23049;54.304;8.826;2023-06-10T04:16:20;13.00;99.90
32769;DHT22;23049;54.304;8.826;2023-06-10T04:18:46;13.10;99.90
32769;DHT22;23049;54.304;8.826;2023-06-10T04:21:12;13.20;99.90
32769;DHT22;23049;54.304;8.826;2023-06-10T04:23:37;13.20;99.90
32769;DHT22;23049;54.304;8.826;2023-06-10T04:26:04;13.20;99.90
32769;DHT22;23049;54.304;8.826;2023-06-10T04:28:30;13.20;99.90
32769;DHT22;23049;54.304;8.826;2023-06-10T04:30:56;13.30;99.90
32769;DHT22;23049;54.304;8.826;2023-06-10T04:33:21;13.30;99.90
32769;DHT22;23049;54.304;8.826;2023-06-10T04:35:47;13.40;99.90
32769;DHT22;23049;54.304;8.826;2023-06-10T04:38:13;13.50;99.90
32769;DHT22;23049;54.304;8.826;2023-06-10T04:40:39;13.50;99.90
32769;DHT22;23049;54.304;8.826;2023-06-10T04:43:04;13.80;99.90
32769;DHT22;23049;54.304;8.826;2023-06-10T04:45:30;13.70;99.90
32769;DHT22;23049;54.304;8.826;2023-06-10T04:47:56;13.70;99.90
32769;DHT22;23049;54.304;8.826;2023-06-10T04:50:23;13.90;99.90
32769;DHT22;23049;54.304;8.826;2023-06-10T04:52:48;13.90;99.90
32769;DHT22;23049;54.304;8.826;2023-06-10T04:55:15;14.10;99.90
32769;DHT22;23049;54.304;8.826;2023-06-10T04:57:40;14.20;99.90
32769;DHT22;23049;54.304;8.826;2023-06-10T05:00:06;14.30;99.90
32769;DHT22;23049;54.304;8.826;2023-06-10T05:02:32;14.50;99.90
32769;DHT22;23049;54.304;8.826;2023-06-10T05:04:57;14.50;99.90
32769;DHT22;23049;54.304;8.826;2023-06-10T05:07:23;14.60;99.90
32769;DHT22;23049;54.304;8.826;2023-06-10T05:09:49;14.50;99.90
32769;DHT22;23049;54.304;8.826;2023-06-10T05:12:14;14.50;99.90
32769;DHT22;23049;54.304;8.826;2023-06-10T05:14:40;14.50;99.90
32769;DHT22;23049;54.304;8.826;2023-06-10T05:17:05;14.50;99.90
32769;DHT22;23049;54.304;8.826;2023-06-10T05:19:31;14.50;99.90
32769;DHT22;23049;54.304;8.826;2023-06-10T05:21:57;14.60;99.90
32769;DHT22;23049;54.304;8.826;2023-06-10T05:24:23;14.60;99.90
32769;DHT22;23049;54.304;8.826;2023-06-10T05:26:48;14.60;99.90
32769;DHT22;23049;54.304;8.826;2023-06-10T05:29:14;14.80;99.90
32769;DHT22;23049;54.304;8.826;2023-06-10T05:31:41;15.00;99.90
32769;DHT22;23049;54.304;8.826;2023-06-10T05:34:06;15.00;99.90
32769;DHT22;23049;54.304;8.826;2023-06-10T05:36:32;15.10;99.90
32769;DHT22;23049;54.304;8.826;2023-06-10T05:38:58;15.20;99.90
32769;DHT22;23049;54.304;8.826;2023-06-10T05:41:23;15.30;99.90
32769;DHT22;23049;54.304;8.826;2023-06-10T05:43:49;15.40;99.90
32769;DHT22;23049;54.304;8.826;2023-06-10T05:46:14;15.60;99.90
32769;DHT22;23049;54.304;8.826;2023-06-10T05:48:40;15.80;99.90
32769;DHT22;23049;54.304;8.826;2023-06-10T05:51:05;16.00;99.90
32769;DHT22;23049;54.304;8.826;2023-06-10T05:53:31;16.10;99.90
32769;DHT22;23049;54.304;8.826;2023-06-10T05:55:57;16.10;99.90
32769;DHT22;23049;54.304;8.826;2023-06-10T05:58:23;16.20;99.90
32769;DHT22;23049;54.304;8.826;2023-06-10T06:00:49;16.20;99.90
32769;DHT22;23049;54.304;8.826;2023-06-10T06:03:14;16.30;99.90
32769;DHT22;23049;54.304;8.826;2023-06-10T06:05:40;16.40;99.90
32769;DHT22;23049;54.304;8.826;2023-06-10T06:08:05;16.30;99.90
32769;DHT22;23049;54.304;8.826;2023-06-10T06:10:31;16.30;99.90
32769;DHT22;23049;54.304;8.826;2023-06-10T06:12:56;16.30;99.90
32769;DHT22;23049;54.304;8.826;2023-06-10T06:15:22;16.20;99.90
32769;DHT22;23049;54.304;8.826;2023-06-10T06:17:48;16.30;99.90
32769;DHT22;23049;54.304;8.826;2023-06-10T06:20:13;16.20;99.90
32769;DHT22;23049;54.304;8.826;2023-06-10T06:22:39;16.20;99.90
32769;DHT22;23049;54.304;8.826;2023-06-10T06:25:04;16.20;99.90
32769;DHT22;23049;54.304;8.826;2023-06-10T06:27:30;16.20;99.90
32769;DHT22;23049;54.304;8.826;2023-06-10T06:29:56;16.10;99.90
32769;DHT22;23049;54.304;8.826;2023-06-10T06:32:22;16.20;99.90
32769;DHT22;23049;54.304;8.826;2023-06-10T06:34:48;16.30;99.90
32769;DHT22;23049;54.304;8.826;2023-06-10T06:37:21;16.50;99.90
32769;DHT22;23049;54.304;8.826;2023-06-10T06:39:46;16.40;99.90
32769;DHT22;23049;54.304;8.826;2023-06-10T06:42:11;16.50;99.90
32769;DHT22;23049;54.304;8.826;2023-06-10T06:44:37;16.70;99.90
32769;DHT22;23049;54.304;8.826;2023-06-10T06:47:03;16.80;99.90
32769;DHT22;23049;54.304;8.826;2023-06-10T06:49:28;16.80;99.90
32769;DHT22;23049;54.304;8.826;2023-06-10T06:51:54;16.70;99.90
32769;DHT22;23049;54.304;8.826;2023-06-10T06:54:19;16.80;99.90
32769;DHT22;23049;54.304;8.826;2023-06-10T06:56:45;16.80;99.90
32769;DHT22;23049;54.304;8.826;2023-06-10T06:59:10;16.70;99.90
32769;DHT22;23049;54.304;8.826;2023-06-10T07:01:39;16.80;99.90
32769;DHT22;23049;54.304;8.826;2023-06-10T07:04:04;16.70;99.90
32769;DHT22;23049;54.304;8.826;2023-06-10T07:06:30;16.80;99.90
32769;DHT22;23049;54.304;8.826;2023-06-10T07:08:55;16.90;99.90
32769;DHT22;23049;54.304;8.826;2023-06-10T07:11:21;16.90;99.90
32769;DHT22;23049;54.304;8.826;2023-06-10T07:13:47;17.20;99.90
32769;DHT22;23049;54.304;8.826;2023-06-10T07:16:12;17.20;99.90
32769;DHT22;23049;54.304;8.826;2023-06-10T07:18:38;17.20;99.90
32769;DHT22;23049;54.304;8.826;2023-06-10T07:21:03;17.20;99.90
32769;DHT22;23049;54.304;8.826;2023-06-10T07:23:29;17.30;99.90
32769;DHT22;23049;54.304;8.826;2023-06-10T07:25:55;17.10;99.90
32769;DHT22;23049;54.304;8.826;2023-06-10T07:28:20;17.20;99.90
32769;DHT22;23049;54.304;8.826;2023-06-10T07:30:46;17.10;99.90
32769;DHT22;23049;54.304;8.826;2023-06-10T07:33:11;17.10;99.90
32769;DHT22;23049;54.304;8.826;2023-06-10T07:35:37;17.10;99.90
32769;DHT22;23049;54.304;8.826;2023-06-10T07:38:02;17.20;99.90
32769;DHT22;23049;54.304;8.826;2023-06-10T07:40:28;17.10;99.90
32769;DHT22;23049;54.304;8.826;2023-06-10T07:43:00;17.20;99.90
32769;DHT22;23049;54.304;8.826;2023-06-10T07:45:26;17.40;99.90
32769;DHT22;23049;54.304;8.826;2023-06-10T07:47:51;17.60;99.90
32769;DHT22;23049;54.304;8.826;2023-06-10T07:50:17;17.70;99.90
32769;DHT22;23049;54.304;8.826;2023-06-10T07:52:43;17.60;99.90
32769;DHT22;23049;54.304;8.826;2023-06-10T07:55:08;17.50;99.90
32769;DHT22;23049;54.304;8.826;2023-06-10T07:57:34;17.70;99.90
32769;DHT22;23049;54.304;8.826;2023-06-10T08:00:02;17.50;99.90
32769;DHT22;23049;54.304;8.826;2023-06-10T08:02:29;17.50;99.90
32769;DHT22;23049;54.304;8.826;2023-06-10T08:04:55;17.30;99.90
32769;DHT22;23049;54.304;8.826;2023-06-10T08:07:20;17.60;99.90
32769;DHT22;23049;54.304;8.826;2023-06-10T08:09:47;17.60;99.90
32769;DHT22;23049;54.304;8.826;2023-06-10T08:12:12;17.60;99.90
32769;DHT22;23049;54.304;8.826;2023-06-10T08:14:38;17.50;99.90
32769;DHT22;23049;54.304;8.826;2023-06-10T08:17:04;17.50;99.90
32769;DHT22;23049;54.304;8.826;2023-06-10T08:19:31;17.60;99.90
32769;DHT22;23049;54.304;8.826;2023-06-10T08:21:56;17.50;99.90
32769;DHT22;23049;54.304;8.826;2023-06-10T08:24:22;17.70;99.90
32769;DHT22;23049;54.304;8.826;2023-06-10T08:26:47;17.60;99.90
32769;DHT22;23049;54.304;8.826;2023-06-10T08:29:13;17.70;99.90
32769;DHT22;23049;54.304;8.826;2023-06-10T08:31:42;17.60;99.90
32769;DHT22;23049;54.304;8.826;2023-06-10T08:34:08;17.60;99.90
32769;DHT22;23049;54.304;8.826;2023-06-10T08:36:33;17.70;99.90
32769;DHT22;23049;54.304;8.826;2023-06-10T08:38:59;17.60;99.90
32769;DHT22;23049;54.304;8.826;2023-06-10T08:41:25;17.50;99.90
32769;DHT22;23049;54.304;8.826;2023-06-10T08:43:54;17.60;99.90
32769;DHT22;23049;54.304;8.826;2023-06-10T08:46:23;17.60;99.90
32769;DHT22;23049;54.304;8.826;2023-06-10T08:48:49;17.60;99.90
32769;DHT22;23049;54.304;8.826;2023-06-10T08:51:19;17.60;99.90
32769;DHT22;23049;54.304;8.826;2023-06-10T08:53:49;17.60;99.90
32769;DHT22;23049;54.304;8.826;2023-06-10T08:56:15;17.70;99.90
32769;DHT22;23049;54.304;8.826;2023-06-10T08:58:41;17.80;99.90
32769;DHT22;23049;54.304;8.826;2023-06-10T09:01:10;17.80;99.90
32769;DHT22;23049;54.304;8.826;2023-06-10T09:03:37;17.90;99.90
32769;DHT22;23049;54.304;8.826;2023-06-10T09:06:04;18.00;99.90
32769;DHT22;23049;54.304;8.826;2023-06-10T09:08:30;17.90;99.90
32769;DHT22;23049;54.304;8.826;2023-06-10T09:10:55;17.90;99.90
32769;DHT22;23049;54.304;8.826;2023-06-10T09:13:21;18.00;99.90
32769;DHT22;23049;54.304;8.826;2023-06-10T09:15:47;18.00;99.90
32769;DHT22;23049;54.304;8.826;2023-06-10T09:18:14;17.90;99.90
32769;DHT22;23049;54.304;8.826;2023-06-10T09:20:41;18.00;99.90
32769;DHT22;23049;54.304;8.826;2023-06-10T09:23:06;18.00;99.90
32769;DHT22;23049;54.304;8.826;2023-06-10T09:25:36;18.30;99.90
32769;DHT22;23049;54.304;8.826;2023-06-10T09:28:02;18.10;99.90
32769;DHT22;23049;54.304;8.826;2023-06-10T09:30:29;18.00;99.90
32769;DHT22;23049;54.304;8.826;2023-06-10T09:32:55;18.10;99.90
32769;DHT22;23049;54.304;8.826;2023-06-10T09:35:24;18.30;99.90
32769;DHT22;23049;54.304;8.826;2023-06-10T09:37:54;18.20;99.90
32769;DHT22;23049;54.304;8.826;2023-06-10T09:40:20;18.20;99.90
32769;DHT22;23049;54.304;8.826;2023-06-10T09:42:45;18.20;99.90
32769;DHT22;23049;54.304;8.826;2023-06-10T09:45:14;18.10;99.90
32769;DHT22;23049;54.304;8.826;2023-06-10T09:47:40;18.00;99.90
32769;DHT22;23049;54.304;8.826;2023-06-10T09:50:05;18.40;99.90
32769;DHT22;23049;54.304;8.826;2023-06-10T09:52:31;18.40;99.90
32769;DHT22;23049;54.304;8.826;2023-06-10T09:55:00;18.40;99.90
32769;DHT22;23049;54.304;8.826;2023-06-10T09:57:26;18.20;99.90
32769;DHT22;23049;54.304;8.826;2023-06-10T09:59:55;18.10;99.90
32769;DHT22;23049;54.304;8.826;2023-06-10T10:02:21;18.10;99.90
32769;DHT22;23049;54.304;8.826;2023-06-10T10:04:46;18.20;99.90
32769;DHT22;23049;54.304;8.826;2023-06-10T10:07:12;18.40;99.90
32769;DHT22;23049;54.304;8.826;2023-06-10T10:09:38;18.50;99.90
32769;DHT22;23049;54.304;8.826;2023-06-10T10:12:10;18.60;99.90
32769;DHT22;23049;54.304;8.826;2023-06-10T10:14:39;18.60;99.90
32769;DHT22;23049;54.304;8.826;2023-06-10T10:17:07;18.60;99.90
32769;DHT22;23049;54.304;8.826;2023-06-10T10:19:36;18.70;99.90
32769;DHT22;23049;54.304;8.826;2023-06-10T10:22:10;18.90;99.90
32769;DHT22;23049;54.304;8.826;2023-06-10T10:24:36;18.90;99.90
32769;DHT22;23049;54.304;8.826;2023-06-10T10:27:06;18.90;99.90
32769;DHT22;23049;54.304;8.826;2023-06-10T10:29:35;19.10;99.90
32769;DHT22;23049;54.304;8.826;2023-06-10T10:32:01;19.10;99.90
32769;DHT22;23049;54.304;8.826;2023-06-10T10:34:51;19.40;99.90
32769;DHT22;23049;54.304;8.826;2023-06-10T10:37:14;19.20;99.90
32769;DHT22;23049;54.304;8.826;2023-06-10T10:39:40;19.40;99.90
32769;DHT22;23049;54.304;8.826;2023-06-10T10:42:05;19.50;99.90
32769;DHT22;23049;54.304;8.826;2023-06-10T10:44:35;19.50;99.90
32769;DHT22;23049;54.304;8.826;2023-06-10T10:47:02;19.70;99.90
32769;DHT22;23049;54.304;8.826;2023-06-10T10:49:28;19.70;99.90
32769;DHT22;23049;54.304;8.826;2023-06-10T10:51:59;19.70;99.90
32769;DHT22;23049;54.304;8.826;2023-06-10T10:54:35;19.60;99.90
32769;DHT22;23049;54.304;8.826;2023-06-10T10:57:13;19.80;99.90
32769;DHT22;23049;54.304;8.826;2023-06-10T10:59:43;19.90;99.90
32769;DHT22;23049;54.304;8.826;2023-06-10T11:02:09;20.00;99.90
32769;DHT22;23049;54.304;8.826;2023-06-10T11:04:35;20.10;99.90
32769;DHT22;23049;54.304;8.826;2023-06-10T11:07:07;20.20;99.90
32769;DHT22;23049;54.304;8.826;2023-06-10T11:09:32;20.30;99.90
32769;DHT22;23049;54.304;8.826;2023-06-10T11:11:58;20.50;99.90
32769;DHT22;23049;54.304;8.826;2023-06-10T11:14:27;20.30;99.90
32769;DHT22;23049;54.304;8.826;2023-06-10T11:16:58;20.50;99.90
32769;DHT22;23049;54.304;8.826;2023-06-10T11:19:34;20.40;99.90
32769;DHT22;23049;54.304;8.826;2023-06-10T11:22:05;20.40;99.90
32769;DHT22;23049;54.304;8.826;2023-06-10T11:24:31;20.30;99.90
32769;DHT22;23049;54.304;8.826;2023-06-10T11:27:15;20.30;99.90
32769;DHT22;23049;54.304;8.826;2023-06-10T11:29:57;20.30;99.90
32769;DHT22;23049;54.304;8.826;2023-06-10T11:32:25;20.50;99.90
32769;DHT22;23049;54.304;8.826;2023-06-10T11:34:54;20.50;99.90
32769;DHT22;23049;54.304;8.826;2023-06-10T11:37:20;20.60;99.90
32769;DHT22;23049;54.304;8.826;2023-06-10T11:42:00;20.80;99.90
32769;DHT22;23049;54.304;8.826;2023-06-10T11:44:27;21.00;99.90
32769;DHT22;23049;54.304;8.826;2023-06-10T11:46:53;20.80;99.90
32769;DHT22;23049;54.304;8.826;2023-06-10T11:49:20;20.80;99.90
32769;DHT22;23049;54.304;8.826;2023-06-10T11:51:45;20.90;99.90
32769;DHT22;23049;54.304;8.826;2023-06-10T11:54:15;21.00;99.90
32769;DHT22;23049;54.304;8.826;2023-06-10T11:56:41;21.20;99.90
32769;DHT22;23049;54.304;8.826;2023-06-10T11:59:06;21.20;99.90
32769;DHT22;23049;54.304;8.826;2023-06-10T12:01:34;20.90;99.90
32769;DHT22;23049;54.304;8.826;2023-06-10T12:04:00;21.20;99.90
32769;DHT22;23049;54.304;8.826;2023-06-10T12:08:59;21.30;99.90
32769;DHT22;23049;54.304;8.826;2023-06-10T12:11:25;21.30;99.90
32769;DHT22;23049;54.304;8.826;2023-06-10T12:13:52;21.30;99.90
32769;DHT22;23049;54.304;8.826;2023-06-10T12:16:17;21.20;99.90
32769;DHT22;23049;54.304;8.826;2023-06-10T12:18:43;21.40;99.90
32769;DHT22;23049;54.304;8.826;2023-06-10T12:21:19;21.50;99.90
32769;DHT22;23049;54.304;8.826;2023-06-10T12:24:05;21.60;99.90
32769;DHT22;23049;54.304;8.826;2023-06-10T12:26:41;21.60;99.90
32769;DHT22;23049;54.304;8.826;2023-06-10T12:29:17;21.60;99.90
32769;DHT22;23049;54.304;8.826;2023-06-10T12:32:00;21.60;99.90
32769;DHT22;23049;54.304;8.826;2023-06-10T12:34:30;21.60;99.90
32769;DHT22;23049;54.304;8.826;2023-06-10T12:36:56;21.80;99.90
32769;DHT22;23049;54.304;8.826;2023-06-10T12:39:21;21.70;99.90
32769;DHT22;23049;54.304;8.826;2023-06-10T12:41:51;21.60;99.90
32769;DHT22;23049;54.304;8.826;2023-06-10T12:44:16;21.70;99.90
32769;DHT22;23049;54.304;8.826;2023-06-10T12:46:42;21.80;99.90
32769;DHT22;23049;54.304;8.826;2023-06-10T12:49:07;21.60;99.90
32769;DHT22;23049;54.304;8.826;2023-06-10T12:51:33;21.70;99.90
32769;DHT22;23049;54.304;8.826;2023-06-10T12:53:59;21.70;99.90
32769;DHT22;23049;54.304;8.826;2023-06-10T12:56:25;21.70;99.90
32769;DHT22;23049;54.304;8.826;2023-06-10T12:58:51;21.90;99.90
32769;DHT22;23049;54.304;8.826;2023-06-10T13:01:16;21.90;99.90
32769;DHT22;23049;54.304;8.826;2023-06-10T13:03:42;21.90;99.90
32769;DHT22;23049;54.304;8.826;2023-06-10T13:06:07;22.10;99.90
32769;DHT22;23049;54.304;8.826;2023-06-10T13:08:33;21.70;99.90
32769;DHT22;23049;54.304;8.826;2023-06-10T13:10:58;21.80;99.90
32769;DHT22;23049;54.304;8.826;2023-06-10T13:13:24;21.90;99.90
32769;DHT22;23049;54.304;8.826;2023-06-10T13:15:51;21.80;99.90
32769;DHT22;23049;54.304;8.826;2023-06-10T13:18:17;22.00;99.90
32769;DHT22;23049;54.304;8.826;2023-06-10T13:20:44;22.00;99.90
32769;DHT22;23049;54.304;8.826;2023-06-10T13:23:09;22.00;99.90
32769;DHT22;23049;54.304;8.826;2023-06-10T13:25:35;22.10;99.90
32769;DHT22;23049;54.304;8.826;2023-06-10T13:28:00;22.10;99.90
32769;DHT22;23049;54.304;8.826;2023-06-10T13:30:26;22.10;99.90
32769;DHT22;23049;54.304;8.826;2023-06-10T13:32:52;22.20;99.90
32769;DHT22;23049;54.304;8.826;2023-06-10T13:35:18;22.20;99.90
32769;DHT22;23049;54.304;8.826;2023-06-10T13:37:43;22.10;99.90
32769;DHT22;23049;54.304;8.826;2023-06-10T13:40:09;22.10;99.90
32769;DHT22;23049;54.304;8.826;2023-06-10T13:42:35;22.10;99.90
32769;DHT22;23049;54.304;8.826;2023-06-10T13:45:01;22.20;99.90
32769;DHT22;23049;54.304;8.826;2023-06-10T13:47:27;22.00;99.90
32769;DHT22;23049;54.304;8.826;2023-06-10T13:49:53;21.90;99.90
32769;DHT22;23049;54.304;8.826;2023-06-10T13:52:18;22.00;99.90
32769;DHT22;23049;54.304;8.826;2023-06-10T13:54:44;22.00;99.90
32769;DHT22;23049;54.304;8.826;2023-06-10T13:57:10;22.00;99.90
32769;DHT22;23049;54.304;8.826;2023-06-10T13:59:36;22.20;99.90
32769;DHT22;23049;54.304;8.826;2023-06-10T14:02:01;22.20;99.90
32769;DHT22;23049;54.304;8.826;2023-06-10T14:04:27;22.20;99.90
32769;DHT22;23049;54.304;8.826;2023-06-10T14:06:52;22.00;99.90
32769;DHT22;23049;54.304;8.826;2023-06-10T14:09:18;21.90;99.90
32769;DHT22;23049;54.304;8.826;2023-06-10T14:11:44;21.90;99.90
32769;DHT22;23049;54.304;8.826;2023-06-10T14:14:09;21.90;99.90
32769;DHT22;23049;54.304;8.826;2023-06-10T14:16:35;21.90;99.90
32769;DHT22;23049;54.304;8.826;2023-06-10T14:19:01;21.80;99.90
32769;DHT22;23049;54.304;8.826;2023-06-10T14:21:26;21.80;99.90
32769;DHT22;23049;54.304;8.826;2023-06-10T14:23:52;21.80;99.90
32769;DHT22;23049;54.304;8.826;2023-06-10T14:26:18;21.80;99.90
32769;DHT22;23049;54.304;8.826;2023-06-10T14:34:31;21.80;99.90
32769;DHT22;23049;54.304;8.826;2023-06-10T14:36:59;21.90;99.90
32769;DHT22;23049;54.304;8.826;2023-06-10T14:39:25;21.80;99.90
32769;DHT22;23049;54.304;8.826;2023-06-10T14:41:51;21.80;99.90
32769;DHT22;23049;54.304;8.826;2023-06-10T14:44:18;21.80;99.90
32769;DHT22;23049;54.304;8.826;2023-06-10T14:46:43;21.70;99.90
32769;DHT22;23049;54.304;8.826;2023-06-10T14:49:09;21.80;99.90
32769;DHT22;23049;54.304;8.826;2023-06-10T14:51:34;21.90;99.90
32769;DHT22;23049;54.304;8.826;2023-06-10T14:54:00;22.00;99.90
32769;DHT22;23049;54.304;8.826;2023-06-10T14:56:25;21.90;99.90
32769;DHT22;23049;54.304;8.826;2023-06-10T15:01:30;21.90;99.90
32769;DHT22;23049;54.304;8.826;2023-06-10T15:03:55;21.80;99.90
32769;DHT22;23049;54.304;8.826;2023-06-10T15:06:21;22.00;99.90
32769;DHT22;23049;54.304;8.826;2023-06-10T15:12:04;21.70;99.90
32769;DHT22;23049;54.304;8.826;2023-06-10T15:14:30;21.80;99.90
32769;DHT22;23049;54.304;8.826;2023-06-10T15:16:56;21.70;99.90
32769;DHT22;23049;54.304;8.826;2023-06-10T15:21:49;21.60;99.90
32769;DHT22;23049;54.304;8.826;2023-06-10T15:24:15;21.80;99.90
32769;DHT22;23049;54.304;8.826;2023-06-10T15:26:40;21.70;99.90
32769;DHT22;23049;54.304;8.826;2023-06-10T15:29:06;21.70;99.90
32769;DHT22;23049;54.304;8.826;2023-06-10T15:31:32;21.70;99.90
32769;DHT22;23049;54.304;8.826;2023-06-10T15:33:58;21.70;99.90
32769;DHT22;23049;54.304;8.826;2023-06-10T15:36:24;21.50;99.90
32769;DHT22;23049;54.304;8.826;2023-06-10T15:38:49;21.50;99.90
32769;DHT22;23049;54.304;8.826;2023-06-10T15:41:15;21.40;99.90
32769;DHT22;23049;54.304;8.826;2023-06-10T15:43:41;21.50;99.90
32769;DHT22;23049;54.304;8.826;2023-06-10T15:46:07;21.40;99.90
32769;DHT22;23049;54.304;8.826;2023-06-10T15:48:32;21.50;99.90
32769;DHT22;23049;54.304;8.826;2023-06-10T15:50:58;21.50;99.90